createdAt,value
2019-03-13T00:00:00.411Z,38.58
2019-03-13T00:36:24.047Z,38.74
2019-03-13T00:38:54.340Z,38.61
2019-03-13T00:41:24.681Z,38.56
2019-03-13T00:43:56.009Z,38.65
2019-03-13T00:46:26.306Z,38.67
2019-03-13T00:48:56.599Z,38.67
2019-03-13T00:51:26.883Z,38.62
2019-03-13T00:53:57.858Z,38.85
2019-03-13T00:56:28.235Z,38.77
2019-03-13T00:58:58.594Z,38.97
2019-03-13T01:01:43.514Z,38.78
2019-03-13T01:04:32.253Z,38.98
2019-03-13T01:07:05.283Z,38.75
2019-03-13T01:09:35.635Z,38.73
2019-03-13T01:12:06.602Z,38.70
2019-03-13T01:14:36.882Z,38.72
2019-03-13T01:17:08.106Z,38.69
2019-03-13T01:19:39.477Z,38.51
2019-03-13T01:22:09.827Z,38.53
2019-03-13T01:24:40.062Z,38.63
2019-03-13T01:27:10.363Z,38.67
2019-03-13T01:29:40.635Z,38.73
2019-03-13T01:32:38.831Z,38.68
2019-03-13T01:35:21.727Z,38.64
2019-03-13T01:37:51.987Z,38.60
2019-03-13T01:40:22.279Z,38.67
2019-03-13T01:42:52.713Z,38.72
2019-03-13T01:45:23.105Z,38.79
2019-03-13T01:47:53.391Z,39.09
2019-03-13T01:50:23.656Z,38.83
2019-03-13T01:52:54.008Z,38.89
2019-03-13T01:55:24.296Z,38.69
2019-03-13T01:57:54.541Z,38.79
2019-03-13T02:00:24.840Z,38.83
2019-03-13T02:02:55.176Z,38.88
2019-03-13T02:05:25.596Z,38.93
2019-03-13T02:07:56.846Z,39.17
2019-03-13T02:10:27.097Z,38.95
2019-03-13T02:12:57.527Z,38.95
2019-03-13T02:15:27.766Z,38.94
2019-03-13T02:17:58.144Z,38.88
2019-03-13T02:20:29.703Z,38.73
2019-03-13T02:23:00.100Z,39.04
2019-03-13T02:25:30.386Z,38.93
2019-03-13T02:28:00.601Z,38.74
2019-03-13T02:30:32.169Z,38.75
2019-03-13T02:33:02.468Z,38.78
2019-03-13T02:35:32.855Z,39.03
2019-03-13T02:38:03.185Z,39.10
2019-03-13T02:40:43.839Z,39.11
2019-03-13T02:43:14.202Z,39.28
2019-03-13T02:45:44.499Z,38.97
2019-03-13T02:48:17.097Z,39.09
2019-03-13T02:50:48.886Z,38.84
2019-03-13T02:53:19.175Z,38.77
2019-03-13T02:55:49.537Z,38.86
2019-03-13T02:58:19.907Z,39.01
2019-03-13T03:00:59.146Z,39.03
2019-03-13T03:03:32.384Z,39.04
2019-03-13T03:06:02.742Z,38.94
2019-03-13T03:08:33.000Z,39.14
2019-03-13T03:11:03.401Z,39.26
2019-03-13T03:13:33.748Z,39.14
2019-03-13T03:16:04.326Z,39.08
2019-03-13T03:18:34.811Z,39.04
2019-03-13T03:21:05.173Z,39.12
2019-03-13T03:23:35.480Z,39.09
2019-03-13T03:26:05.788Z,39.14
2019-03-13T03:28:36.085Z,38.92
2019-03-13T03:31:06.308Z,39.07
2019-03-13T03:33:35.814Z,39.11
2019-03-13T03:36:06.171Z,39.01
2019-03-13T03:38:36.557Z,39.02
2019-03-13T03:41:06.976Z,39.01
2019-03-13T03:43:40.736Z,39.28
2019-03-13T03:46:09.402Z,39.32
2019-03-13T03:48:39.647Z,38.72
2019-03-13T03:51:09.967Z,38.83
2019-03-13T03:53:40.247Z,38.41
2019-03-13T03:56:10.539Z,38.49
2019-03-13T03:58:40.950Z,38.11
2019-03-13T04:01:11.326Z,38.16
2019-03-13T04:03:41.608Z,36.54
2019-03-13T04:06:11.908Z,37.69
2019-03-13T04:08:42.354Z,37.36
2019-03-13T04:11:12.645Z,37.61
2019-03-13T04:13:44.820Z,37.39
2019-03-13T04:16:15.153Z,37.35
2019-03-13T04:18:45.700Z,37.27
2019-03-13T04:21:16.077Z,37.35
2019-03-13T04:23:46.331Z,37.46
2019-03-13T04:26:16.561Z,37.39
2019-03-13T04:28:46.864Z,37.44
2019-03-13T04:31:17.194Z,37.42
2019-03-13T04:33:47.580Z,37.47
2019-03-13T04:36:17.928Z,37.43
2019-03-13T04:38:48.335Z,37.40
2019-03-13T04:41:18.666Z,37.39
2019-03-13T04:43:48.926Z,37.27
2019-03-13T04:46:19.474Z,37.26
2019-03-13T04:48:49.850Z,37.26
2019-03-13T04:51:22.047Z,37.27
2019-03-13T04:53:52.336Z,37.24
2019-03-13T04:56:23.556Z,37.27
2019-03-13T04:58:55.030Z,37.27
2019-03-13T05:01:26.321Z,37.26
2019-03-13T05:03:57.040Z,37.21
2019-03-13T05:06:29.997Z,37.15
2019-03-13T05:09:09.034Z,37.13
2019-03-13T05:11:39.476Z,37.11
2019-03-13T05:14:09.795Z,37.16
2019-03-13T05:16:40.275Z,37.12
2019-03-13T05:19:10.721Z,37.24
2019-03-13T05:21:41.009Z,37.13
2019-03-13T05:24:11.276Z,37.05
2019-03-13T05:26:41.815Z,36.99
2019-03-13T05:29:12.117Z,36.99
2019-03-13T05:31:42.535Z,36.97
2019-03-13T05:34:14.072Z,36.97
2019-03-13T05:36:44.341Z,37.00
2019-03-13T05:39:14.721Z,36.94
2019-03-13T05:41:45.023Z,36.83
2019-03-13T05:44:15.291Z,36.89
2019-03-13T05:46:46.776Z,37.02
2019-03-13T05:49:17.083Z,36.92
2019-03-13T05:51:47.431Z,36.91
2019-03-13T05:54:17.864Z,36.80
2019-03-13T05:56:48.673Z,36.81
2019-03-13T05:59:19.018Z,36.93
2019-03-13T06:01:49.270Z,36.79
2019-03-13T06:04:19.599Z,36.77
2019-03-13T06:06:50.086Z,36.84
2019-03-13T06:09:20.470Z,36.73
2019-03-13T06:11:51.397Z,36.81
2019-03-13T06:14:21.630Z,36.71
2019-03-13T06:16:51.945Z,36.65
2019-03-13T06:19:22.259Z,36.71
2019-03-13T06:21:53.257Z,36.63
2019-03-13T06:24:23.542Z,36.69
2019-03-13T06:26:53.907Z,36.64
2019-03-13T06:29:24.123Z,36.59
2019-03-13T06:31:54.497Z,36.55
2019-03-13T06:34:24.732Z,36.64
2019-03-13T06:36:55.046Z,36.47
2019-03-13T06:39:25.352Z,36.52
2019-03-13T06:41:55.900Z,36.44
2019-03-13T06:44:26.229Z,36.43
2019-03-13T06:46:56.479Z,36.40
2019-03-13T06:49:26.799Z,36.39
2019-03-13T06:51:57.176Z,36.46
2019-03-13T06:54:27.458Z,36.34
2019-03-13T06:56:57.751Z,36.41
2019-03-13T06:59:45.753Z,36.41
2019-03-13T07:02:38.214Z,36.61
2019-03-13T07:05:30.445Z,36.38
2019-03-13T07:08:12.303Z,36.31
2019-03-13T07:11:07.510Z,36.46
2019-03-13T07:13:45.939Z,36.43
2019-03-13T07:16:47.194Z,36.63
2019-03-13T07:19:47.672Z,36.19
2019-03-13T07:22:38.947Z,36.36
2019-03-13T07:25:27.129Z,36.44
2019-03-13T07:28:14.861Z,36.11
2019-03-13T07:31:04.015Z,36.17
2019-03-13T07:33:49.299Z,36.13
2019-03-13T07:36:37.149Z,36.19
2019-03-13T07:39:26.785Z,36.20
2019-03-13T07:42:13.738Z,35.97
2019-03-13T07:44:52.444Z,35.41
2019-03-13T07:47:43.179Z,35.04
2019-03-13T07:50:35.659Z,35.44
2019-03-13T07:53:28.146Z,35.67
2019-03-13T07:56:20.433Z,35.78
2019-03-13T07:58:59.877Z,36.15
2019-03-13T08:01:36.080Z,36.12
2019-03-13T08:04:28.294Z,36.15
2019-03-13T08:07:20.236Z,36.16
2019-03-13T08:10:25.060Z,36.46
2019-03-13T08:13:06.652Z,36.31
2019-03-13T08:16:01.781Z,36.51
2019-03-13T08:18:45.771Z,36.43
2019-03-13T08:21:33.834Z,36.56
2019-03-13T08:24:22.502Z,36.44
2019-03-13T08:27:11.668Z,36.45
2019-03-13T08:30:06.955Z,36.31
2019-03-13T08:32:55.102Z,36.39
2019-03-13T08:35:40.642Z,36.61
2019-03-13T08:38:19.015Z,36.21
2019-03-13T08:40:58.895Z,36.55
2019-03-13T08:43:55.222Z,36.45
2019-03-13T08:46:53.510Z,36.25
2019-03-13T08:49:31.332Z,35.91
2019-03-13T08:52:18.452Z,36.09
2019-03-13T08:55:00.402Z,36.43
2019-03-13T08:57:40.745Z,36.44
2019-03-13T09:00:33.879Z,37.13
2019-03-13T09:03:16.184Z,36.90
2019-03-13T09:06:20.382Z,37.12
2019-03-13T09:09:16.430Z,37.01
2019-03-13T09:12:05.573Z,36.27
2019-03-13T09:14:57.686Z,36.10
2019-03-13T09:18:05.103Z,35.95
2019-03-13T09:20:57.156Z,35.92
2019-03-13T09:23:38.216Z,37.23
2019-03-13T09:26:33.196Z,37.41
2019-03-13T09:29:35.199Z,37.54
2019-03-13T09:32:14.408Z,37.36
2019-03-13T09:35:09.074Z,37.94
2019-03-13T09:38:13.496Z,38.25
2019-03-13T09:41:03.047Z,37.92
2019-03-13T09:43:52.276Z,37.10
2019-03-13T09:46:41.590Z,37.61
2019-03-13T09:49:31.308Z,37.85
2019-03-13T09:52:08.527Z,37.69
2019-03-13T09:54:47.990Z,34.40
2019-03-13T09:57:35.895Z,35.39
2019-03-13T10:00:26.059Z,36.24
2019-03-13T10:03:05.784Z,36.57
2019-03-13T10:06:04.363Z,36.67
2019-03-13T10:08:52.402Z,36.89
2019-03-13T10:11:28.983Z,36.93
2019-03-13T10:14:36.265Z,36.03
2019-03-13T10:17:12.376Z,36.55
2019-03-13T10:19:53.708Z,36.75
2019-03-13T10:22:31.401Z,36.99
2019-03-13T10:25:20.345Z,37.07
2019-03-13T10:28:02.491Z,37.17
2019-03-13T10:30:51.698Z,37.15
2019-03-13T10:33:47.965Z,37.12
2019-03-13T10:36:31.913Z,37.09
2019-03-13T10:39:27.014Z,37.26
2019-03-13T10:42:11.201Z,37.12
2019-03-13T10:45:00.405Z,37.24
2019-03-13T10:47:41.257Z,37.17
2019-03-13T10:50:30.100Z,37.22
2019-03-13T10:53:14.853Z,36.98
2019-03-13T10:56:01.811Z,37.15
2019-03-13T10:58:43.952Z,37.33
2019-03-13T11:01:39.001Z,37.13
2019-03-13T11:04:18.660Z,37.04
2019-03-13T11:07:07.837Z,37.06
2019-03-13T11:09:59.959Z,36.64
2019-03-13T11:13:07.274Z,36.63
2019-03-13T11:15:51.681Z,36.48
2019-03-13T11:18:35.148Z,36.79
2019-03-13T11:21:24.406Z,37.15
2019-03-13T11:24:02.891Z,37.14
2019-03-13T11:26:51.633Z,37.48
2019-03-13T11:29:44.205Z,37.51
2019-03-13T11:32:33.369Z,37.11
2019-03-13T11:35:25.923Z,37.41
2019-03-13T11:38:05.223Z,37.13
2019-03-13T11:40:55.119Z,37.06
2019-03-13T11:43:43.224Z,36.94
2019-03-13T11:46:30.515Z,36.79
2019-03-13T11:49:18.757Z,36.74
2019-03-13T11:52:06.853Z,36.78
2019-03-13T11:55:08.076Z,36.58
2019-03-13T11:58:03.490Z,35.95
2019-03-13T12:01:07.965Z,35.97
2019-03-13T12:03:54.605Z,35.94
2019-03-13T12:06:34.089Z,34.96
2019-03-13T12:09:19.598Z,30.72
2019-03-13T12:12:08.902Z,30.58
2019-03-13T12:15:04.615Z,31.76
2019-03-13T12:18:12.308Z,32.19
2019-03-13T12:20:52.846Z,32.63
2019-03-13T12:23:31.504Z,32.68
2019-03-13T12:26:23.579Z,32.89
2019-03-13T12:29:06.169Z,32.95
2019-03-13T12:31:42.952Z,32.99
2019-03-13T12:34:32.333Z,32.93
2019-03-13T12:37:16.732Z,32.82
2019-03-13T12:40:06.230Z,32.69
2019-03-13T12:42:45.086Z,33.09
2019-03-13T12:45:36.387Z,33.44
2019-03-13T12:48:17.052Z,33.55
2019-03-13T12:50:52.537Z,33.59
2019-03-13T12:53:34.763Z,33.56
2019-03-13T12:56:36.350Z,33.55
2019-03-13T12:59:24.439Z,33.55
2019-03-13T13:02:11.606Z,33.64
2019-03-13T13:05:03.957Z,33.65
2019-03-13T13:07:49.127Z,33.85
2019-03-13T13:10:50.748Z,33.61
2019-03-13T13:13:42.786Z,33.66
2019-03-13T13:16:32.042Z,33.97
2019-03-13T13:19:02.555Z,33.86
2019-03-13T13:21:33.019Z,33.83
2019-03-13T13:24:03.521Z,31.03
2019-03-13T13:26:33.906Z,32.57
2019-03-13T13:29:04.831Z,33.30
2019-03-13T13:31:33.830Z,33.48
2019-03-13T13:34:04.161Z,33.63
2019-03-13T13:36:34.438Z,33.74
2019-03-13T13:39:05.435Z,33.85
2019-03-13T13:41:37.400Z,33.96
2019-03-13T13:44:07.649Z,34.10
2019-03-13T13:46:40.159Z,34.13
2019-03-13T13:49:10.519Z,34.08
2019-03-13T13:51:40.812Z,34.06
2019-03-13T13:54:12.303Z,34.14
2019-03-13T13:56:42.568Z,34.51
2019-03-13T13:59:13.458Z,34.66
2019-03-13T14:01:43.873Z,34.58
2019-03-13T14:04:14.319Z,34.84
2019-03-13T14:06:44.670Z,34.95
2019-03-13T14:09:15.089Z,35.05
2019-03-13T14:11:45.517Z,35.12
2019-03-13T14:14:15.803Z,35.36
2019-03-13T14:16:46.098Z,35.42
2019-03-13T14:19:16.366Z,35.55
2019-03-13T14:21:46.617Z,35.73
2019-03-13T14:24:17.521Z,36.00
2019-03-13T14:26:49.106Z,36.13
2019-03-13T14:29:19.410Z,36.24
2019-03-13T14:31:50.516Z,36.47
2019-03-13T14:34:21.380Z,36.65
2019-03-13T14:36:52.236Z,36.83
2019-03-13T14:39:23.148Z,36.70
2019-03-13T14:41:53.540Z,36.51
2019-03-13T14:44:23.870Z,36.35
2019-03-13T14:46:54.246Z,36.33
2019-03-13T14:49:24.451Z,36.62
2019-03-13T14:51:54.690Z,37.49
2019-03-13T14:54:24.913Z,37.66
2019-03-13T14:56:55.103Z,38.31
2019-03-13T14:59:25.416Z,37.48
2019-03-13T15:01:55.585Z,37.94
2019-03-13T15:04:25.888Z,37.59
2019-03-13T15:06:56.076Z,37.40
2019-03-13T15:09:26.283Z,37.39
2019-03-13T15:11:56.962Z,37.49
2019-03-13T15:14:27.374Z,37.35
2019-03-13T15:16:57.731Z,37.25
2019-03-13T15:19:28.083Z,37.25
2019-03-13T15:21:58.403Z,37.24
2019-03-13T15:24:28.661Z,37.67
2019-03-13T15:26:59.144Z,37.70
2019-03-13T15:29:29.565Z,37.77
2019-03-13T15:31:59.873Z,37.76
2019-03-13T15:34:30.162Z,38.17
2019-03-13T15:37:00.400Z,36.82
2019-03-13T15:39:30.786Z,35.64
2019-03-13T15:42:01.124Z,35.66
2019-03-13T15:44:31.576Z,36.30
2019-03-13T15:47:01.897Z,36.97
2019-03-13T15:49:32.278Z,37.59
2019-03-13T15:52:02.777Z,38.18
2019-03-13T15:54:33.557Z,38.32
2019-03-13T15:57:03.983Z,38.52
2019-03-13T15:59:34.444Z,38.51
2019-03-13T16:02:04.717Z,38.37
2019-03-13T16:04:35.172Z,33.29
2019-03-13T16:07:05.556Z,31.51
2019-03-13T16:09:35.845Z,32.23
2019-03-13T16:12:09.109Z,31.77
2019-03-13T16:14:39.403Z,31.75
2019-03-13T16:17:09.789Z,32.76
2019-03-13T16:19:40.388Z,33.16
2019-03-13T16:22:12.073Z,33.50
2019-03-13T16:24:42.675Z,33.70
2019-03-13T16:27:12.949Z,33.74
2019-03-13T16:29:43.465Z,33.76
2019-03-13T16:32:15.580Z,33.89
2019-03-13T16:34:48.815Z,33.90
2019-03-13T16:37:19.214Z,34.02
2019-03-13T16:39:50.235Z,34.04
2019-03-13T16:42:20.534Z,34.08
2019-03-13T16:44:50.890Z,34.43
2019-03-13T16:47:21.231Z,35.00
2019-03-13T16:49:51.531Z,35.84
2019-03-13T16:52:22.074Z,35.70
2019-03-13T16:54:52.393Z,37.91
2019-03-13T16:57:22.797Z,37.90
2019-03-13T17:00:00.537Z,36.16
2019-03-13T17:02:25.246Z,34.76
2019-03-13T17:04:55.664Z,34.34
2019-03-13T17:07:26.006Z,34.68
2019-03-13T17:09:56.363Z,34.90
2019-03-13T17:12:26.656Z,34.91
2019-03-13T17:14:57.009Z,34.99
2019-03-13T17:17:27.607Z,35.01
2019-03-13T17:19:57.994Z,35.08
2019-03-13T17:22:28.639Z,35.13
2019-03-13T17:24:59.073Z,35.16
2019-03-13T17:27:29.378Z,35.18
2019-03-13T17:29:59.799Z,35.21
2019-03-13T17:32:30.145Z,35.27
2019-03-13T17:35:01.531Z,35.26
2019-03-13T17:37:31.920Z,35.30
2019-03-13T17:40:03.268Z,35.42
2019-03-13T17:42:34.908Z,35.43
2019-03-13T17:45:07.295Z,35.33
2019-03-13T17:47:39.114Z,35.40
2019-03-13T17:50:11.112Z,35.24
2019-03-13T17:52:41.503Z,35.28
2019-03-13T17:55:12.054Z,35.25
2019-03-13T17:57:42.511Z,35.23
2019-03-13T18:00:21.450Z,35.29
2019-03-13T18:02:51.891Z,35.25
2019-03-13T18:05:22.306Z,35.30
2019-03-13T18:07:53.021Z,35.22
2019-03-13T18:10:23.324Z,35.27
2019-03-13T18:12:53.642Z,35.23
2019-03-13T18:15:24.079Z,35.15
2019-03-13T18:17:54.517Z,35.12
2019-03-13T18:20:25.898Z,35.18
2019-03-13T18:22:56.259Z,35.18
2019-03-13T18:25:26.691Z,35.17
2019-03-13T18:27:56.957Z,35.13
2019-03-13T18:30:27.402Z,35.21
2019-03-13T18:32:57.914Z,35.16
2019-03-13T18:35:28.289Z,35.33
2019-03-13T18:37:58.697Z,35.42
2019-03-13T18:40:28.976Z,35.37
2019-03-13T18:42:59.359Z,35.47
2019-03-13T18:45:29.666Z,35.67
2019-03-13T18:48:00.060Z,35.62
2019-03-13T18:50:30.804Z,35.89
2019-03-13T18:53:01.181Z,35.79
2019-03-13T18:55:31.664Z,35.82
2019-03-13T18:58:00.330Z,35.84
2019-03-13T19:00:28.962Z,35.88
2019-03-13T19:02:59.317Z,35.95
2019-03-13T19:05:29.747Z,36.02
2019-03-13T19:08:00.084Z,36.11
2019-03-13T19:10:30.488Z,36.19
2019-03-13T19:13:00.887Z,36.09
2019-03-13T19:15:31.461Z,36.06
2019-03-13T19:18:07.310Z,35.99
2019-03-13T19:20:37.752Z,36.08
2019-03-13T19:23:08.039Z,36.11
2019-03-13T19:25:38.310Z,36.19
2019-03-13T19:28:08.640Z,36.19
2019-03-13T19:30:40.030Z,36.29
2019-03-13T19:33:10.402Z,36.20
2019-03-13T19:35:40.674Z,36.27
2019-03-13T19:38:11.122Z,36.23
2019-03-13T19:40:41.466Z,36.25
2019-03-13T19:43:11.770Z,36.30
2019-03-13T19:45:42.483Z,36.48
2019-03-13T19:48:14.398Z,36.37
2019-03-13T19:50:44.667Z,36.52
2019-03-13T19:53:15.069Z,36.56
2019-03-13T19:55:47.717Z,36.67
2019-03-13T19:58:18.460Z,36.72
2019-03-13T20:00:48.960Z,36.78
2019-03-13T20:03:19.303Z,36.87
2019-03-13T20:05:49.531Z,36.94
2019-03-13T20:08:19.903Z,37.07
2019-03-13T20:10:52.556Z,36.96
2019-03-13T20:13:22.928Z,36.99
2019-03-13T20:15:53.270Z,37.00
2019-03-13T20:18:23.686Z,37.14
2019-03-13T20:20:54.487Z,37.19
2019-03-13T20:23:24.853Z,37.27
2019-03-13T20:25:55.224Z,36.58
2019-03-13T20:28:25.756Z,35.72
2019-03-13T20:30:56.712Z,36.03
2019-03-13T20:33:27.800Z,36.16
2019-03-13T20:35:59.171Z,36.22
2019-03-13T20:38:30.173Z,36.32
2019-03-13T20:41:01.926Z,36.42
2019-03-13T20:43:33.145Z,36.51
2019-03-13T20:46:06.015Z,36.60
2019-03-13T20:48:39.283Z,36.67
2019-03-13T20:51:11.071Z,36.75
2019-03-13T20:53:42.073Z,36.85
2019-03-13T20:56:13.658Z,36.66
2019-03-13T20:58:45.030Z,36.48
2019-03-13T21:01:17.079Z,36.50
2019-03-13T21:03:48.328Z,36.56
2019-03-13T21:06:19.579Z,36.64
2019-03-13T21:08:50.782Z,36.70
2019-03-13T21:11:22.419Z,36.88
2019-03-13T21:13:53.630Z,36.79
2019-03-13T21:16:24.634Z,36.54
2019-03-13T21:18:55.820Z,36.26
2019-03-13T21:21:26.838Z,36.26
2019-03-13T21:23:57.526Z,36.24
2019-03-13T21:26:28.744Z,36.22
2019-03-13T21:28:59.897Z,36.09
2019-03-13T21:31:35.934Z,36.04
2019-03-13T21:34:07.672Z,36.16
2019-03-13T21:36:38.964Z,36.13
2019-03-13T21:39:11.149Z,36.00
2019-03-13T21:41:42.912Z,36.24
2019-03-13T21:44:14.709Z,36.47
2019-03-13T21:46:50.562Z,36.43
2019-03-13T21:49:21.536Z,36.45
2019-03-13T21:51:53.554Z,36.48
2019-03-13T21:54:24.371Z,36.56
2019-03-13T21:56:54.978Z,36.65
2019-03-13T21:59:25.375Z,36.86
2019-03-13T22:01:59.371Z,36.84
2019-03-13T22:04:32.759Z,37.05
2019-03-13T22:07:03.343Z,37.02
2019-03-13T22:09:33.736Z,37.18
2019-03-13T22:12:05.179Z,37.22
2019-03-13T22:14:38.385Z,37.26
2019-03-13T22:17:07.521Z,37.27
2019-03-13T22:19:37.797Z,37.35
2019-03-13T22:22:08.162Z,37.39
2019-03-13T22:24:38.754Z,37.39
2019-03-13T22:27:09.069Z,37.44
2019-03-13T22:29:39.459Z,37.72
2019-03-13T22:32:09.746Z,38.23
2019-03-13T22:34:40.401Z,38.54
2019-03-13T22:37:11.244Z,38.85
2019-03-13T22:39:41.631Z,38.88
2019-03-13T22:42:11.943Z,39.54
2019-03-13T22:44:42.326Z,39.80
2019-03-13T22:47:13.545Z,40.64
2019-03-13T22:49:43.964Z,41.33
2019-03-13T22:52:14.219Z,41.28
2019-03-13T22:54:44.878Z,41.28
2019-03-13T22:57:15.211Z,41.62
2019-03-13T22:59:45.477Z,41.81
2019-03-13T23:02:15.772Z,42.31
2019-03-13T23:04:46.132Z,42.22
2019-03-13T23:07:16.499Z,42.34
2019-03-13T23:09:46.797Z,42.24
2019-03-13T23:12:17.037Z,42.14
2019-03-13T23:14:47.460Z,42.36
2019-03-13T23:17:17.824Z,42.18
2019-03-13T23:19:48.206Z,41.93
2019-03-13T23:22:18.652Z,42.23
2019-03-13T23:24:48.986Z,42.12
2019-03-13T23:27:19.257Z,42.14
2019-03-13T23:29:49.555Z,42.25
2019-03-13T23:32:19.905Z,42.15
2019-03-13T23:34:50.434Z,42.10
2019-03-13T23:37:20.676Z,42.09
2019-03-13T23:39:50.963Z,41.90
2019-03-13T23:42:21.260Z,42.03
2019-03-13T23:44:54.559Z,41.91
2019-03-13T23:47:23.525Z,41.77
2019-03-13T23:49:53.812Z,42.00
2019-03-13T23:52:25.840Z,41.95
2019-03-13T23:54:56.402Z,41.99
2019-03-13T23:57:26.680Z,42.11
2019-03-13T23:59:56.985Z,41.87
